Time,TemperatureF,DewpointF,PressureIn,WindDirection,WindDirectionDegrees,WindSpeedMPH,WindSpeedGustMPH,Humidity,HourlyPrecipIn,Conditions,Clouds,dailyrainin,SolarRadiationWatts/m^2,SoftwareType,DateUTC
2013-10-09 00:01:00,75.0,53.0,-100.00,SW,230,7.0,18.0,46,0.00,,,0.00,0.000000,,2013-10-09 07:01:00,
2013-10-09 00:12:00,75.0,53.0,-100.00,SW,230,7.0,18.0,46,0.00,,,0.00,0.000000,,2013-10-09 07:12:00,
2013-10-09 00:21:00,75.0,53.0,-100.00,SW,230,7.0,18.0,46,0.00,,,0.00,0.000000,,2013-10-09 07:21:00,
2013-10-09 00:52:00,74.0,40.0,-100.00,WNW,295,2.0,6.0,29,0.00,,,0.00,0.000000,,2013-10-09 07:52:00,
2013-10-09 01:02:00,74.0,40.0,-100.00,WNW,295,2.0,6.0,29,0.00,,,0.00,0.000000,,2013-10-09 08:02:00,
2013-10-09 01:12:00,74.0,40.0,-100.00,WNW,295,2.0,6.0,29,0.00,,,0.00,0.000000,,2013-10-09 08:12:00,
2013-10-09 01:22:00,74.0,40.0,-100.00,WNW,295,2.0,6.0,29,0.00,,,0.00,0.000000,,2013-10-09 08:22:00,
2013-10-09 01:53:00,71.0,40.0,-100.00,WNW,298,9.0,18.0,32,0.00,,,0.00,0.000000,,2013-10-09 08:53:00,
2013-10-09 02:02:00,71.0,40.0,-100.00,WNW,298,9.0,18.0,32,0.00,,,0.00,0.000000,,2013-10-09 09:02:00,
2013-10-09 02:11:00,71.0,40.0,-100.00,WNW,298,9.0,18.0,32,0.00,,,0.00,0.000000,,2013-10-09 09:11:00,
2013-10-09 02:22:00,71.0,40.0,-100.00,WNW,298,9.0,18.0,32,0.00,,,0.00,0.000000,,2013-10-09 09:22:00,
2013-10-09 02:53:00,70.0,40.0,-100.00,NNW,336,3.0,16.0,34,0.00,,,0.00,0.000000,,2013-10-09 09:53:00,
2013-10-09 03:03:00,70.0,40.0,-100.00,NNW,336,3.0,16.0,34,0.00,,,0.00,0.000000,,2013-10-09 10:03:00,
2013-10-09 03:12:00,70.0,40.0,-100.00,NNW,336,3.0,16.0,34,0.00,,,0.00,0.000000,,2013-10-09 10:12:00,
2013-10-09 03:23:00,70.0,40.0,-100.00,NNW,336,3.0,16.0,34,0.00,,,0.00,0.000000,,2013-10-09 10:23:00,
2013-10-09 03:53:00,68.0,43.0,-100.00,WSW,258,10.0,20.0,41,0.00,,,0.00,0.000000,,2013-10-09 10:53:00,
2013-10-09 04:02:00,68.0,43.0,-100.00,WSW,258,10.0,20.0,41,0.00,,,0.00,0.000000,,2013-10-09 11:02:00,
2013-10-09 04:12:00,68.0,43.0,-100.00,WSW,258,10.0,20.0,41,0.00,,,0.00,0.000000,,2013-10-09 11:12:00,
2013-10-09 04:22:00,68.0,43.0,-100.00,WSW,258,10.0,20.0,41,0.00,,,0.00,0.000000,,2013-10-09 11:22:00,
2013-10-09 04:52:00,66.0,46.0,-100.00,WSW,253,9.0,17.0,48,0.00,,,0.00,0.000000,,2013-10-09 11:52:00,
2013-10-09 05:01:00,66.0,46.0,-100.00,WSW,253,9.0,17.0,48,0.00,,,0.00,0.000000,,2013-10-09 12:01:00,
2013-10-09 05:12:00,66.0,46.0,-100.00,WSW,253,9.0,17.0,48,0.00,,,0.00,0.000000,,2013-10-09 12:12:00,
2013-10-09 05:21:00,66.0,46.0,-100.00,WSW,253,9.0,17.0,48,0.00,,,0.00,0.000000,,2013-10-09 12:21:00,
2013-10-09 05:52:00,64.0,44.0,-100.00,West,267,8.0,21.0,48,0.00,,,0.00,0.000000,,2013-10-09 12:52:00,
2013-10-09 06:02:00,64.0,44.0,-100.00,West,267,8.0,21.0,48,0.00,,,0.00,0.000000,,2013-10-09 13:02:00,
2013-10-09 06:11:00,64.0,44.0,-100.00,West,267,8.0,21.0,48,0.00,,,0.00,0.000000,,2013-10-09 13:11:00,
2013-10-09 06:22:00,64.0,44.0,-100.00,West,267,8.0,21.0,48,0.00,,,0.00,0.000000,,2013-10-09 13:22:00,
2013-10-09 06:52:00,63.0,43.0,-100.00,NNW,332,3.0,19.0,48,0.00,,,0.00,0.000000,,2013-10-09 13:52:00,
2013-10-09 07:02:00,63.0,43.0,-100.00,NNW,332,3.0,19.0,48,0.00,,,0.00,0.000000,,2013-10-09 14:02:00,
2013-10-09 07:11:00,63.0,43.0,-100.00,NNW,332,3.0,19.0,48,0.00,,,0.00,0.000000,,2013-10-09 14:11:00,
2013-10-09 07:21:00,63.0,43.0,-100.00,NNW,332,3.0,19.0,48,0.00,,,0.00,0.000000,,2013-10-09 14:21:00,
2013-10-09 07:52:00,67.0,44.0,-100.00,WNW,295,1.0,10.0,44,0.00,,,0.00,63.000000,,2013-10-09 14:52:00,
2013-10-09 08:02:00,67.0,44.0,-100.00,WNW,295,1.0,10.0,44,0.00,,,0.00,63.000000,,2013-10-09 15:02:00,
2013-10-09 08:11:00,67.0,44.0,-100.00,WNW,295,1.0,10.0,44,0.00,,,0.00,63.000000,,2013-10-09 15:11:00,
2013-10-09 08:21:00,67.0,44.0,-100.00,WNW,295,1.0,10.0,44,0.00,,,0.00,63.000000,,2013-10-09 15:21:00,
2013-10-09 08:53:00,67.0,45.0,-100.00,NW,310,9.0,16.0,45,0.00,,,0.00,148.000000,,2013-10-09 15:53:00,
2013-10-09 09:03:00,67.0,45.0,-100.00,NW,310,9.0,16.0,45,0.00,,,0.00,148.000000,,2013-10-09 16:03:00,
2013-10-09 09:13:00,67.0,45.0,-100.00,NW,310,9.0,16.0,45,0.00,,,0.00,148.000000,,2013-10-09 16:13:00,
2013-10-09 09:24:00,67.0,45.0,-100.00,NW,310,9.0,16.0,45,0.00,,,0.00,148.000000,,2013-10-09 16:24:00,
2013-10-09 09:53:00,69.0,44.0,-100.00,WNW,292,13.0,24.0,40,0.00,,,0.00,420.000000,,2013-10-09 16:53:00,
2013-10-09 10:03:00,69.0,44.0,-100.00,WNW,292,13.0,24.0,40,0.00,,,0.00,420.000000,,2013-10-09 17:03:00,
2013-10-09 10:12:00,69.0,44.0,-100.00,WNW,292,13.0,24.0,40,0.00,,,0.00,420.000000,,2013-10-09 17:12:00,
2013-10-09 10:22:00,69.0,44.0,-100.00,WNW,292,13.0,24.0,40,0.00,,,0.00,420.000000,,2013-10-09 17:22:00,
2013-10-09 10:52:00,73.0,43.0,-100.00,WNW,289,16.0,27.0,34,0.00,,,0.00,752.000000,,2013-10-09 17:52:00,
2013-10-09 11:01:00,73.0,43.0,-100.00,WNW,289,16.0,27.0,34,0.00,,,0.00,752.000000,,2013-10-09 18:01:00,
2013-10-09 11:12:00,73.0,43.0,-100.00,WNW,289,16.0,27.0,34,0.00,,,0.00,752.000000,,2013-10-09 18:12:00,
2013-10-09 11:21:00,73.0,43.0,-100.00,WNW,289,16.0,27.0,34,0.00,,,0.00,752.000000,,2013-10-09 18:21:00,
2013-10-09 11:52:00,76.0,43.0,-100.00,West,277,13.0,30.0,31,0.00,,,0.00,821.000000,,2013-10-09 18:52:00,
2013-10-09 12:01:00,76.0,43.0,-100.00,West,277,13.0,30.0,31,0.00,,,0.00,821.000000,,2013-10-09 19:01:00,
2013-10-09 12:11:00,76.0,43.0,-100.00,West,277,13.0,30.0,31,0.00,,,0.00,821.000000,,2013-10-09 19:11:00,
2013-10-09 12:21:00,76.0,43.0,-100.00,West,277,13.0,30.0,31,0.00,,,0.00,821.000000,,2013-10-09 19:21:00,
2013-10-09 12:53:00,75.0,41.0,-100.00,WNW,290,11.0,23.0,29,0.00,,,0.00,973.000000,,2013-10-09 19:53:00,
2013-10-09 13:02:00,75.0,41.0,-100.00,WNW,290,11.0,23.0,29,0.00,,,0.00,973.000000,,2013-10-09 20:02:00,
2013-10-09 13:11:00,75.0,41.0,-100.00,WNW,290,11.0,23.0,29,0.00,,,0.00,973.000000,,2013-10-09 20:11:00,
2013-10-09 13:22:00,75.0,41.0,-100.00,WNW,290,11.0,23.0,29,0.00,,,0.00,973.000000,,2013-10-09 20:22:00,
2013-10-09 13:52:00,75.0,40.0,-100.00,WNW,284,11.0,21.0,28,0.00,,,0.00,751.000000,,2013-10-09 20:52:00,
2013-10-09 14:02:00,75.0,40.0,-100.00,WNW,284,11.0,21.0,28,0.00,,,0.00,751.000000,,2013-10-09 21:02:00,
2013-10-09 14:11:00,75.0,40.0,-100.00,WNW,284,11.0,21.0,28,0.00,,,0.00,751.000000,,2013-10-09 21:11:00,
2013-10-09 14:22:00,75.0,40.0,-100.00,WNW,284,11.0,21.0,28,0.00,,,0.00,751.000000,,2013-10-09 21:22:00,
2013-10-09 14:54:00,77.0,40.0,-100.00,West,270,7.0,20.0,27,0.00,,,0.00,549.000000,,2013-10-09 21:54:00,
2013-10-09 15:03:00,77.0,40.0,-100.00,West,270,7.0,20.0,27,0.00,,,0.00,549.000000,,2013-10-09 22:03:00,
2013-10-09 15:13:00,77.0,40.0,-100.00,West,270,7.0,20.0,27,0.00,,,0.00,549.000000,,2013-10-09 22:13:00,
2013-10-09 15:24:00,77.0,40.0,-100.00,West,270,7.0,20.0,27,0.00,,,0.00,549.000000,,2013-10-09 22:24:00,
2013-10-09 15:53:00,75.0,41.0,-100.00,WNW,295,11.0,20.0,29,0.00,,,0.00,505.000000,,2013-10-09 22:53:00,
2013-10-09 16:03:00,75.0,41.0,-100.00,WNW,295,11.0,20.0,29,0.00,,,0.00,505.000000,,2013-10-09 23:03:00,
2013-10-09 16:11:00,75.0,41.0,-100.00,WNW,295,11.0,20.0,29,0.00,,,0.00,505.000000,,2013-10-09 23:11:00,
2013-10-09 16:22:00,75.0,41.0,-100.00,WNW,295,11.0,20.0,29,0.00,,,0.00,505.000000,,2013-10-09 23:22:00,
2013-10-09 16:53:00,75.0,41.0,-100.00,WNW,288,11.0,19.0,29,0.00,,,0.00,470.000000,,2013-10-09 23:53:00,
2013-10-09 17:02:00,75.0,41.0,-100.00,WNW,288,11.0,19.0,29,0.00,,,0.00,470.000000,,2013-10-10 00:02:00,
2013-10-09 17:12:00,75.0,41.0,-100.00,WNW,288,11.0,19.0,29,0.00,,,0.00,470.000000,,2013-10-10 00:12:00,
2013-10-09 17:22:00,75.0,41.0,-100.00,WNW,288,11.0,19.0,29,0.00,,,0.00,470.000000,,2013-10-10 00:22:00,
2013-10-09 17:52:00,73.0,42.0,-100.00,WNW,291,14.0,22.0,33,0.00,,,0.00,221.000000,,2013-10-10 00:52:00,
2013-10-09 18:01:00,73.0,42.0,-100.00,WNW,291,14.0,22.0,33,0.00,,,0.00,221.000000,,2013-10-10 01:01:00,
2013-10-09 18:11:00,73.0,42.0,-100.00,WNW,291,14.0,22.0,33,0.00,,,0.00,221.000000,,2013-10-10 01:11:00,
2013-10-09 18:21:00,73.0,42.0,-100.00,WNW,291,14.0,22.0,33,0.00,,,0.00,221.000000,,2013-10-10 01:21:00,
2013-10-09 18:52:00,69.0,39.0,-100.00,WNW,297,8.0,25.0,34,0.00,,,0.00,25.000000,,2013-10-10 01:52:00,
2013-10-09 19:02:00,69.0,39.0,-100.00,WNW,297,8.0,25.0,34,0.00,,,0.00,25.000000,,2013-10-10 02:02:00,
2013-10-09 19:12:00,69.0,39.0,-100.00,WNW,297,8.0,25.0,34,0.00,,,0.00,25.000000,,2013-10-10 02:12:00,
2013-10-09 19:22:00,69.0,39.0,-100.00,WNW,297,8.0,25.0,34,0.00,,,0.00,25.000000,,2013-10-10 02:22:00,
2013-10-09 20:12:00,69.0,44.0,-100.00,WNW,290,9.0,20.0,41,0.00,,,0.00,0.000000,,2013-10-10 03:12:00,
2013-10-09 20:22:00,69.0,44.0,-100.00,WNW,290,9.0,20.0,41,0.00,,,0.00,0.000000,,2013-10-10 03:22:00,
2013-10-09 20:55:00,67.0,44.0,-100.00,NNW,328,1.0,15.0,43,0.00,,,0.00,0.000000,,2013-10-10 03:55:00,
2013-10-09 21:04:00,67.0,44.0,-100.00,NNW,328,1.0,15.0,43,0.00,,,0.00,0.000000,,2013-10-10 04:04:00,
2013-10-09 21:13:00,67.0,44.0,-100.00,NNW,328,1.0,15.0,43,0.00,,,0.00,0.000000,,2013-10-10 04:13:00,
2013-10-09 21:24:00,67.0,44.0,-100.00,NNW,328,1.0,15.0,43,0.00,,,0.00,0.000000,,2013-10-10 04:24:00,
2013-10-09 21:54:00,67.0,42.0,-100.00,WNW,292,10.0,15.0,40,0.00,,,0.00,0.000000,,2013-10-10 04:54:00,
2013-10-09 22:03:00,67.0,42.0,-100.00,WNW,292,10.0,15.0,40,0.00,,,0.00,0.000000,,2013-10-10 05:03:00,
2013-10-09 22:12:00,67.0,42.0,-100.00,WNW,292,10.0,15.0,40,0.00,,,0.00,0.000000,,2013-10-10 05:12:00,
2013-10-09 22:22:00,67.0,42.0,-100.00,WNW,292,10.0,15.0,40,0.00,,,0.00,0.000000,,2013-10-10 05:22:00,
2013-10-09 22:52:00,66.0,43.0,-100.00,WNW,299,9.0,17.0,44,0.00,,,0.00,0.000000,,2013-10-10 05:52:00,
2013-10-09 23:03:00,66.0,43.0,-100.00,WNW,299,9.0,17.0,44,0.00,,,0.00,0.000000,,2013-10-10 06:03:00,
2013-10-09 23:13:00,66.0,43.0,-100.00,WNW,299,9.0,17.0,44,0.00,,,0.00,0.000000,,2013-10-10 06:13:00,
2013-10-09 23:22:00,66.0,43.0,-100.00,WNW,299,9.0,17.0,44,0.00,,,0.00,0.000000,,2013-10-10 06:22:00,
2013-10-09 23:53:00,66.0,46.0,-100.00,WNW,291,11.0,20.0,48,0.00,,,0.00,0.000000,,2013-10-10 06:53:00,